Accueil
METAR-TAF:

METAR-TAF

Aéroports :

Aéroport de Rijeka

Rijeka, Croatie

latitude: 45-13N, longitude: 014-35E, altitude: 85 m

Observation

Le bulletin a été fait il y a 16 minutes, à 06:00 UTC
Vent 8 kt de est
Température 16°C
Humidité 82%
Pression 1012 hPa
Visibilité 10 km ou plus
Quelques nuages à une hauteur de 3300 ft
Nuages épars à une hauteur de 4300 ft

METAR: LDRI 200600Z 10008KT 9999 FEW033 SCT043 16/13 Q1012

Heure: 08:16 (06:16 UTC)

Prévision

Le bulletin a été fait il y a 51 minutes, à 05:25 UTC
Prévision valable du 20 à 06 UTC au 21 à 06 UTC
Vent 9 kt de est/nord-est
Visibilité 10 km ou plus
Nuages épars à une hauteur de 4000 ft

TAF: LDRI 200525Z 2006/2106 06009KT 9999 SCT040 TX20/2012Z TN14/2104Z

Observations et prévisions météorologiques de plus de 4000 aéroports (messages METAR et TAF).

Les stations disponibles sont représentées par des disques jaunes et rouges sur la carte.

Passer la souris dessus pour voir le nom de la station.

Cliquer dessus pour voir les observations et prévisions météorologiques.

Pour changer de carte: cliquez sur les boutons verts avec une croix noire pour zoomer, sur le bouton vert avec un tiret pour effectuer un zoom arrière, ou sur les flèches vertes pour les cartes adjacentes.


METAR-TAF: